createdAt,value
2019-02-19T00:00:28.048Z,5.95
2019-02-19T00:02:57.979Z,5.89
2019-02-19T00:05:27.801Z,5.90
2019-02-19T00:07:57.426Z,5.93
2019-02-19T00:10:26.642Z,6.03
2019-02-19T00:12:56.119Z,6.10
2019-02-19T00:15:25.618Z,6.07
2019-02-19T00:17:55.936Z,6.04
2019-02-19T00:20:25.318Z,6.03
2019-02-19T00:22:55.883Z,6.17
2019-02-19T00:25:25.390Z,6.32
2019-02-19T00:27:55.150Z,6.46
2019-02-19T00:30:24.410Z,6.59
2019-02-19T00:32:53.564Z,6.68
2019-02-19T00:35:23.437Z,6.73
2019-02-19T00:37:52.724Z,6.87
2019-02-19T00:40:21.907Z,6.88
2019-02-19T00:42:51.468Z,6.98
2019-02-19T00:45:20.776Z,6.86
2019-02-19T00:47:50.170Z,6.85
2019-02-19T00:50:19.340Z,6.90
2019-02-19T00:52:48.888Z,6.90
2019-02-19T00:55:18.550Z,6.97
2019-02-19T00:57:47.725Z,6.94
2019-02-19T01:00:16.971Z,6.91
2019-02-19T01:02:46.438Z,6.92
2019-02-19T01:05:15.858Z,6.95
2019-02-19T01:07:45.145Z,6.92
2019-02-19T01:10:17.167Z,6.87
2019-02-19T01:12:46.729Z,6.89
2019-02-19T01:15:15.919Z,7.03
2019-02-19T01:17:45.117Z,6.95
2019-02-19T01:20:15.921Z,6.89
2019-02-19T01:22:45.771Z,6.86
2019-02-19T01:25:15.012Z,6.86
2019-02-19T01:27:45.127Z,6.79
2019-02-19T01:30:14.367Z,6.84
2019-02-19T01:32:43.844Z,6.71
2019-02-19T01:35:13.401Z,6.72
2019-02-19T01:37:42.615Z,6.71
2019-02-19T01:40:11.816Z,6.75
2019-02-19T01:42:41.200Z,6.73
2019-02-19T01:45:10.628Z,6.73
2019-02-19T01:47:40.219Z,6.77
2019-02-19T01:50:09.977Z,6.75
2019-02-19T01:52:39.595Z,6.77
2019-02-19T01:55:09.139Z,6.73
2019-02-19T01:57:38.679Z,6.74
2019-02-19T02:00:09.571Z,6.71
2019-02-19T02:02:38.991Z,6.66
2019-02-19T02:05:08.994Z,6.66
2019-02-19T02:07:38.531Z,6.66
2019-02-19T02:10:08.930Z,6.66
2019-02-19T02:12:38.463Z,6.70
2019-02-19T02:15:08.085Z,6.75
2019-02-19T02:17:37.314Z,6.73
2019-02-19T02:20:06.983Z,6.67
2019-02-19T02:22:36.478Z,6.67
2019-02-19T02:25:06.022Z,6.66
2019-02-19T02:27:35.501Z,6.70
2019-02-19T02:30:05.132Z,6.69
2019-02-19T02:32:34.644Z,6.66
2019-02-19T02:35:04.250Z,6.68
2019-02-19T02:37:33.433Z,6.66
2019-02-19T02:40:02.912Z,6.69
2019-02-19T02:42:32.186Z,6.72
2019-02-19T02:45:01.398Z,6.64
2019-02-19T02:47:31.724Z,6.60
2019-02-19T02:50:02.603Z,6.55
2019-02-19T02:52:31.848Z,6.54
2019-02-19T02:55:01.097Z,6.49
2019-02-19T02:57:30.268Z,6.48
2019-02-19T02:59:59.807Z,6.47
2019-02-19T03:02:28.964Z,6.47
2019-02-19T03:04:58.577Z,6.43
2019-02-19T03:07:37.441Z,6.38
2019-02-19T03:10:06.927Z,6.48
2019-02-19T03:12:36.569Z,6.44
2019-02-19T03:15:06.859Z,6.41
2019-02-19T03:17:39.241Z,6.39
2019-02-19T03:20:09.388Z,6.34
2019-02-19T03:22:38.604Z,6.33
2019-02-19T03:25:09.070Z,6.30
2019-02-19T03:27:38.323Z,6.31
2019-02-19T03:30:10.887Z,6.30
2019-02-19T03:32:40.503Z,6.32
2019-02-19T03:35:09.665Z,6.29
2019-02-19T03:37:38.881Z,6.31
2019-02-19T03:40:09.304Z,6.34
2019-02-19T03:42:39.950Z,6.28
2019-02-19T03:45:10.742Z,6.27
2019-02-19T03:47:40.401Z,6.35
2019-02-19T03:50:09.801Z,6.25
2019-02-19T03:52:39.731Z,6.26
2019-02-19T03:55:10.441Z,6.29
2019-02-19T03:57:39.804Z,6.22
2019-02-19T04:00:09.304Z,6.23
2019-02-19T04:02:39.367Z,6.24
2019-02-19T04:05:08.861Z,6.42
2019-02-19T04:07:38.530Z,6.37
2019-02-19T04:10:09.052Z,6.40
2019-02-19T04:12:38.222Z,6.48
2019-02-19T04:15:07.443Z,6.66
2019-02-19T04:17:36.667Z,6.66
2019-02-19T04:20:07.092Z,6.59
2019-02-19T04:22:36.284Z,6.52
2019-02-19T04:25:05.612Z,6.55
2019-02-19T04:27:34.866Z,6.49
2019-02-19T04:30:04.458Z,6.46
2019-02-19T04:32:33.647Z,6.44
2019-02-19T04:35:03.183Z,6.55
2019-02-19T04:37:32.653Z,6.43
2019-02-19T04:40:02.182Z,6.44
2019-02-19T04:42:31.359Z,6.38
2019-02-19T04:45:00.564Z,6.32
2019-02-19T04:47:30.133Z,6.35
2019-02-19T04:50:01.797Z,6.40
2019-02-19T04:52:31.035Z,6.23
2019-02-19T04:55:01.287Z,6.41
2019-02-19T04:57:31.027Z,6.32
2019-02-19T05:00:00.600Z,6.31
2019-02-19T05:02:30.171Z,6.29
2019-02-19T05:04:59.415Z,6.14
2019-02-19T05:07:28.637Z,6.13
2019-02-19T05:09:58.092Z,6.07
2019-02-19T05:12:27.792Z,6.01
2019-02-19T05:14:57.042Z,5.90
2019-02-19T05:17:26.556Z,5.77
2019-02-19T05:19:55.997Z,5.74
2019-02-19T05:22:25.509Z,5.75
2019-02-19T05:24:55.440Z,5.71
2019-02-19T05:27:24.663Z,5.72
2019-02-19T05:29:53.882Z,5.70
2019-02-19T05:32:23.126Z,5.62
2019-02-19T05:34:52.335Z,5.64
2019-02-19T05:37:21.846Z,5.65
2019-02-19T05:39:51.485Z,5.63
2019-02-19T05:42:20.656Z,5.59
2019-02-19T05:44:49.833Z,5.62
2019-02-19T05:47:19.751Z,5.63
2019-02-19T05:49:48.948Z,5.58
2019-02-19T05:52:19.077Z,5.55
2019-02-19T05:54:48.266Z,5.55
2019-02-19T05:57:17.795Z,5.50
2019-02-19T05:59:47.389Z,5.48
2019-02-19T06:02:17.073Z,5.51
2019-02-19T06:04:46.293Z,5.43
2019-02-19T06:07:15.546Z,5.33
2019-02-19T06:09:44.807Z,5.38
2019-02-19T06:12:13.979Z,5.30
2019-02-19T06:14:43.498Z,5.23
2019-02-19T06:17:12.676Z,5.16
2019-02-19T06:19:42.009Z,5.09
2019-02-19T06:22:11.949Z,5.13
2019-02-19T06:24:42.196Z,5.06
2019-02-19T06:27:12.488Z,5.03
2019-02-19T06:29:42.828Z,4.98
2019-02-19T06:32:12.053Z,5.02
2019-02-19T06:34:41.297Z,4.96
2019-02-19T06:37:10.570Z,4.91
2019-02-19T06:39:41.609Z,4.88
2019-02-19T06:42:11.832Z,4.83
2019-02-19T06:44:41.273Z,4.88
2019-02-19T06:47:10.661Z,4.84
2019-02-19T06:49:40.183Z,4.78
2019-02-19T06:52:09.353Z,4.74
2019-02-19T06:54:38.596Z,4.66
2019-02-19T06:57:08.060Z,4.68
2019-02-19T06:59:37.310Z,4.74
2019-02-19T07:02:28.523Z,4.68
2019-02-19T07:05:00.394Z,4.70
2019-02-19T07:07:30.096Z,4.71
2019-02-19T07:09:59.825Z,4.65
2019-02-19T07:12:30.000Z,4.68
2019-02-19T07:14:59.234Z,4.63
2019-02-19T07:17:29.184Z,4.64
2019-02-19T07:19:59.891Z,4.65
2019-02-19T07:22:29.767Z,4.70
2019-02-19T07:24:58.929Z,4.64
2019-02-19T07:27:28.130Z,4.64
2019-02-19T07:29:58.680Z,4.68
2019-02-19T07:32:27.860Z,4.68
2019-02-19T07:34:59.145Z,4.83
2019-02-19T07:37:28.397Z,4.90
2019-02-19T07:39:57.913Z,4.94
2019-02-19T07:42:27.342Z,4.97
2019-02-19T07:44:56.855Z,4.92
2019-02-19T07:47:26.885Z,5.00
2019-02-19T07:49:57.942Z,5.09
2019-02-19T07:52:28.964Z,5.20
2019-02-19T07:54:59.658Z,5.21
2019-02-19T07:57:29.205Z,5.36
2019-02-19T07:59:59.150Z,5.45
2019-02-19T08:02:29.876Z,5.49
2019-02-19T08:04:59.252Z,5.60
2019-02-19T08:07:28.807Z,5.64
2019-02-19T08:09:58.400Z,5.66
2019-02-19T08:12:28.297Z,5.68
2019-02-19T08:14:57.504Z,5.71
2019-02-19T08:17:33.122Z,5.75
2019-02-19T08:19:58.343Z,5.79
2019-02-19T08:22:27.854Z,5.80
2019-02-19T08:24:57.690Z,5.86
2019-02-19T08:27:28.021Z,5.89
2019-02-19T08:29:57.711Z,5.94
2019-02-19T08:32:28.340Z,6.00
2019-02-19T08:34:57.593Z,6.08
2019-02-19T08:37:26.800Z,6.08
2019-02-19T08:39:57.985Z,6.10
2019-02-19T08:42:27.514Z,6.09
2019-02-19T08:44:57.110Z,6.17
2019-02-19T08:47:29.762Z,6.28
2019-02-19T08:49:59.095Z,6.36
2019-02-19T08:52:28.808Z,6.39
2019-02-19T08:54:58.311Z,6.44
2019-02-19T08:57:27.465Z,6.63
2019-02-19T08:59:57.063Z,6.75
2019-02-19T09:02:26.584Z,6.88
2019-02-19T09:04:55.758Z,6.99
2019-02-19T09:07:26.913Z,7.37
2019-02-19T09:09:56.427Z,7.60
2019-02-19T09:12:25.671Z,7.71
2019-02-19T09:14:55.140Z,7.79
2019-02-19T09:17:24.517Z,7.83
2019-02-19T09:19:53.674Z,7.72
2019-02-19T09:22:23.480Z,7.67
2019-02-19T09:24:53.103Z,7.82
2019-02-19T09:27:22.299Z,7.91
2019-02-19T09:29:51.796Z,7.82
2019-02-19T09:32:21.703Z,7.86
2019-02-19T09:34:52.766Z,8.11
2019-02-19T09:37:22.353Z,8.29
2019-02-19T09:39:51.587Z,8.29
2019-02-19T09:42:20.728Z,8.23
2019-02-19T09:44:51.038Z,8.34
2019-02-19T09:47:20.246Z,8.75
2019-02-19T09:49:49.807Z,8.56
2019-02-19T09:52:18.996Z,8.48
2019-02-19T09:54:48.662Z,8.21
2019-02-19T09:57:17.831Z,8.50
2019-02-19T09:59:47.359Z,8.43
2019-02-19T10:02:17.263Z,8.26
2019-02-19T10:04:47.457Z,8.24
2019-02-19T10:07:16.732Z,8.35
2019-02-19T10:09:46.252Z,8.50
2019-02-19T10:12:15.768Z,8.56
2019-02-19T10:14:45.193Z,8.54
2019-02-19T10:17:14.513Z,8.23
2019-02-19T10:19:45.516Z,8.51
2019-02-19T10:22:16.180Z,8.75
2019-02-19T10:24:45.661Z,8.58
2019-02-19T10:27:14.949Z,8.71
2019-02-19T10:29:44.188Z,8.90
2019-02-19T10:32:13.684Z,9.13
2019-02-19T10:34:44.895Z,8.97
2019-02-19T10:37:14.555Z,8.97
2019-02-19T10:39:43.720Z,8.90
2019-02-19T10:42:12.889Z,8.74
2019-02-19T10:44:43.838Z,8.84
2019-02-19T10:47:14.463Z,8.67
2019-02-19T10:49:43.614Z,8.93
2019-02-19T10:52:14.595Z,8.84
2019-02-19T10:54:44.111Z,9.05
2019-02-19T10:57:13.635Z,9.13
2019-02-19T10:59:42.856Z,9.34
2019-02-19T11:02:12.022Z,9.06
2019-02-19T11:04:42.244Z,9.05
2019-02-19T11:07:12.775Z,9.11
2019-02-19T11:09:41.961Z,9.28
2019-02-19T11:12:11.393Z,9.41
2019-02-19T11:14:40.556Z,9.28
2019-02-19T11:17:10.135Z,8.88
2019-02-19T11:19:39.363Z,9.08
2019-02-19T11:22:09.643Z,9.19
2019-02-19T11:24:39.013Z,9.63
2019-02-19T11:27:08.521Z,9.92
2019-02-19T11:29:38.163Z,10.23
2019-02-19T11:32:07.844Z,9.93
2019-02-19T11:34:37.585Z,9.73
2019-02-19T11:37:07.169Z,9.63
2019-02-19T11:39:37.244Z,9.72
2019-02-19T11:42:07.776Z,9.24
2019-02-19T11:44:37.343Z,9.02
2019-02-19T11:47:06.687Z,9.40
2019-02-19T11:49:35.984Z,9.83
2019-02-19T11:52:05.219Z,10.15
2019-02-19T11:54:34.723Z,10.04
2019-02-19T11:57:04.239Z,10.41
2019-02-19T11:59:37.543Z,10.46
2019-02-19T12:02:12.868Z,10.13
2019-02-19T12:04:44.635Z,10.18
2019-02-19T12:07:16.210Z,10.30
2019-02-19T12:09:46.009Z,9.88
2019-02-19T12:12:17.875Z,9.82
2019-02-19T12:14:47.859Z,9.96
2019-02-19T12:17:18.717Z,10.30
2019-02-19T12:19:50.596Z,10.32
2019-02-19T12:22:21.216Z,9.81
2019-02-19T12:24:51.096Z,9.75
2019-02-19T12:27:21.607Z,9.55
2019-02-19T12:29:51.544Z,9.46
2019-02-19T12:32:21.062Z,9.43
2019-02-19T12:34:50.858Z,9.56
2019-02-19T12:37:21.429Z,9.48
2019-02-19T12:39:50.979Z,9.62
2019-02-19T12:42:22.497Z,9.97
2019-02-19T12:44:53.459Z,9.74
2019-02-19T12:47:22.993Z,9.77
2019-02-19T12:49:54.031Z,9.94
2019-02-19T12:52:27.088Z,10.08
2019-02-19T12:54:57.551Z,10.09
2019-02-19T12:57:27.035Z,10.11
2019-02-19T12:59:56.900Z,10.18
2019-02-19T13:02:26.546Z,10.35
2019-02-19T13:04:56.670Z,10.23
2019-02-19T13:07:27.999Z,10.33
2019-02-19T13:09:57.263Z,10.27
2019-02-19T13:12:26.545Z,10.25
2019-02-19T13:14:56.101Z,9.94
2019-02-19T13:17:25.277Z,9.85
2019-02-19T13:19:55.525Z,9.78
2019-02-19T13:22:25.440Z,9.88
2019-02-19T13:24:54.964Z,9.52
2019-02-19T13:27:24.487Z,9.23
2019-02-19T13:29:55.565Z,9.22
2019-02-19T13:32:25.042Z,9.11
2019-02-19T13:34:55.262Z,9.08
2019-02-19T13:37:24.839Z,9.11
2019-02-19T13:39:55.113Z,9.04
2019-02-19T13:42:24.671Z,9.03
2019-02-19T13:44:54.148Z,9.12
2019-02-19T13:47:23.699Z,9.11
2019-02-19T13:49:53.386Z,9.14
2019-02-19T13:52:51.876Z,9.16
2019-02-19T13:55:27.475Z,9.20
2019-02-19T13:57:57.523Z,9.24
2019-02-19T14:00:28.471Z,9.31
2019-02-19T14:02:59.835Z,9.44
2019-02-19T14:05:29.361Z,9.46
2019-02-19T14:07:58.518Z,9.47
2019-02-19T14:10:28.177Z,9.52
2019-02-19T14:12:57.699Z,9.76
2019-02-19T14:15:53.833Z,9.81
2019-02-19T14:18:40.913Z,9.85
2019-02-19T14:21:29.023Z,9.82
2019-02-19T14:24:17.120Z,9.86
2019-02-19T14:27:05.348Z,9.89
2019-02-19T14:29:51.202Z,9.91
2019-02-19T14:32:29.706Z,9.87
2019-02-19T14:35:08.334Z,9.79
2019-02-19T14:37:59.889Z,9.76
2019-02-19T14:40:47.997Z,9.67
2019-02-19T14:43:35.255Z,9.73
2019-02-19T14:46:15.152Z,9.56
2019-02-19T14:48:59.787Z,9.65
2019-02-19T14:51:46.855Z,9.72
2019-02-19T14:54:34.555Z,9.53
2019-02-19T14:57:31.979Z,9.51
2019-02-19T15:00:29.424Z,9.77
2019-02-19T15:03:16.958Z,9.62
2019-02-19T15:06:04.312Z,9.52
2019-02-19T15:08:50.149Z,9.41
2019-02-19T15:11:48.383Z,9.41
2019-02-19T15:14:52.002Z,9.34
2019-02-19T15:17:55.330Z,9.34
2019-02-19T15:20:32.832Z,9.22
2019-02-19T15:23:20.990Z,9.23
2019-02-19T15:26:06.100Z,9.13
2019-02-19T15:28:54.211Z,9.12
2019-02-19T15:31:48.608Z,9.13
2019-02-19T15:34:38.479Z,9.18
2019-02-19T15:37:27.355Z,9.14
2019-02-19T15:40:15.466Z,9.15
2019-02-19T15:43:05.145Z,9.20
2019-02-19T15:46:05.517Z,9.16
2019-02-19T15:49:02.523Z,9.12
2019-02-19T15:51:49.924Z,9.15
2019-02-19T15:54:41.093Z,9.18
2019-02-19T15:57:44.328Z,9.12
2019-02-19T16:00:35.499Z,9.11
2019-02-19T16:03:12.913Z,9.12
2019-02-19T16:05:55.922Z,8.97
2019-02-19T16:08:44.533Z,8.93
2019-02-19T16:11:35.723Z,8.89
2019-02-19T16:14:16.631Z,8.86
2019-02-19T16:17:10.212Z,8.83
2019-02-19T16:19:56.804Z,8.80
2019-02-19T16:22:41.206Z,8.77
2019-02-19T16:25:28.552Z,8.73
2019-02-19T16:28:15.867Z,8.73
2019-02-19T16:31:16.771Z,8.75
2019-02-19T16:34:14.259Z,8.69
2019-02-19T16:37:08.467Z,8.67
2019-02-19T16:39:59.954Z,8.66
2019-02-19T16:42:46.671Z,8.59
2019-02-19T16:45:23.064Z,8.56
2019-02-19T16:48:10.087Z,8.55
2019-02-19T16:50:58.217Z,8.54
2019-02-19T16:53:46.376Z,8.52
2019-02-19T16:56:38.218Z,8.49
2019-02-19T16:59:32.701Z,8.43
2019-02-19T17:02:23.845Z,8.44
2019-02-19T17:05:07.693Z,8.43
2019-02-19T17:07:55.836Z,8.42
2019-02-19T17:10:47.060Z,8.38
2019-02-19T17:13:26.518Z,8.36
2019-02-19T17:16:08.648Z,8.37
2019-02-19T17:19:09.179Z,8.37
2019-02-19T17:21:47.265Z,8.35
2019-02-19T17:24:38.408Z,8.36
2019-02-19T17:27:30.794Z,8.35
2019-02-19T17:30:20.366Z,8.28
2019-02-19T17:33:14.424Z,8.29
2019-02-19T17:35:53.274Z,8.28
2019-02-19T17:38:28.173Z,8.27
2019-02-19T17:41:06.266Z,8.29
2019-02-19T17:43:54.424Z,8.25
2019-02-19T17:46:52.050Z,8.23
2019-02-19T17:49:39.048Z,8.20
2019-02-19T17:52:36.344Z,8.15
2019-02-19T17:55:20.036Z,8.13
2019-02-19T17:57:59.394Z,8.14
2019-02-19T18:00:44.021Z,8.10
2019-02-19T18:03:32.374Z,8.06
2019-02-19T18:06:20.001Z,8.06
2019-02-19T18:08:59.206Z,7.97
2019-02-19T18:11:48.709Z,7.95
2019-02-19T18:14:50.217Z,7.92
2019-02-19T18:17:36.383Z,7.93
2019-02-19T18:20:06.144Z,7.91
2019-02-19T18:22:35.297Z,7.86
2019-02-19T18:25:04.486Z,7.84
2019-02-19T18:27:35.063Z,7.83
2019-02-19T18:30:04.786Z,7.80
2019-02-19T18:32:36.315Z,7.79
2019-02-19T18:35:05.454Z,7.75
2019-02-19T18:37:34.620Z,7.73
2019-02-19T18:40:04.189Z,7.69
2019-02-19T18:42:33.399Z,7.67
2019-02-19T18:45:03.065Z,7.62
2019-02-19T18:47:33.810Z,7.60
2019-02-19T18:50:04.300Z,7.55
2019-02-19T18:52:34.366Z,7.56
2019-02-19T18:55:04.056Z,7.55
2019-02-19T18:57:33.657Z,7.52
2019-02-19T19:00:02.918Z,7.48
2019-02-19T19:02:32.485Z,7.48
2019-02-19T19:05:01.663Z,7.45
2019-02-19T19:07:31.427Z,7.47
2019-02-19T19:10:00.846Z,7.42
2019-02-19T19:12:30.105Z,7.34
2019-02-19T19:14:59.846Z,7.32
2019-02-19T19:17:29.389Z,7.32
2019-02-19T19:19:58.564Z,7.28
2019-02-19T19:22:29.571Z,7.27
2019-02-19T19:24:58.759Z,7.26
2019-02-19T19:27:28.562Z,7.26
2019-02-19T19:29:58.462Z,7.24
2019-02-19T19:32:30.137Z,7.23
2019-02-19T19:34:59.401Z,7.23
2019-02-19T19:37:28.607Z,7.19
2019-02-19T19:39:59.593Z,7.20
2019-02-19T19:42:29.342Z,7.17
2019-02-19T19:44:59.608Z,7.18
2019-02-19T19:47:28.878Z,7.19
2019-02-19T19:49:58.236Z,7.19
2019-02-19T19:52:27.697Z,7.23
2019-02-19T19:54:56.986Z,7.19
2019-02-19T19:57:27.941Z,7.15
2019-02-19T19:59:57.166Z,7.16
2019-02-19T20:02:26.437Z,7.12
2019-02-19T20:04:55.936Z,7.11
2019-02-19T20:07:28.415Z,7.14
2019-02-19T20:09:58.300Z,7.11
2019-02-19T20:12:28.358Z,7.10
2019-02-19T20:14:57.732Z,7.07
2019-02-19T20:17:26.959Z,7.10
2019-02-19T20:19:56.687Z,7.05
2019-02-19T20:22:26.311Z,7.03
2019-02-19T20:24:55.773Z,7.00
2019-02-19T20:27:25.281Z,7.04
2019-02-19T20:29:55.230Z,7.15
2019-02-19T20:32:26.760Z,7.23
2019-02-19T20:34:55.935Z,7.24
2019-02-19T20:37:25.140Z,7.21
2019-02-19T20:39:55.565Z,7.14
2019-02-19T20:42:24.785Z,7.02
2019-02-19T20:44:54.151Z,6.94
2019-02-19T20:47:23.713Z,6.89
2019-02-19T20:49:53.501Z,6.84
2019-02-19T20:52:23.104Z,6.76
2019-02-19T20:54:52.725Z,6.76
2019-02-19T20:57:22.462Z,6.74
2019-02-19T20:59:51.894Z,6.71
2019-02-19T21:02:22.681Z,6.71
2019-02-19T21:04:52.301Z,6.64
2019-02-19T21:07:21.959Z,6.62
2019-02-19T21:09:52.239Z,6.58
2019-02-19T21:12:21.476Z,6.55
2019-02-19T21:14:50.940Z,6.54
2019-02-19T21:17:20.501Z,6.55
2019-02-19T21:19:50.037Z,6.46
2019-02-19T21:22:19.680Z,6.44
2019-02-19T21:24:48.846Z,6.47
2019-02-19T21:27:18.211Z,6.45
2019-02-19T21:29:47.450Z,6.44
2019-02-19T21:32:16.665Z,6.37
2019-02-19T21:34:45.942Z,6.31
2019-02-19T21:37:15.151Z,6.26
2019-02-19T21:39:45.806Z,6.20
2019-02-19T21:42:14.982Z,6.12
2019-02-19T21:44:44.496Z,5.99
2019-02-19T21:47:13.745Z,5.95
2019-02-19T21:49:43.065Z,5.85
2019-02-19T21:52:12.466Z,5.80
2019-02-19T21:54:42.099Z,5.74
2019-02-19T21:57:11.229Z,5.55
2019-02-19T21:59:40.807Z,5.44
2019-02-19T22:02:16.281Z,5.36
2019-02-19T22:04:41.246Z,5.31
2019-02-19T22:07:10.994Z,5.30
2019-02-19T22:09:40.470Z,5.15
2019-02-19T22:12:09.661Z,5.08
2019-02-19T22:14:38.843Z,4.99
2019-02-19T22:17:10.523Z,4.99
2019-02-19T22:19:41.430Z,4.85
2019-02-19T22:22:13.494Z,4.87
2019-02-19T22:24:42.788Z,4.77
2019-02-19T22:27:12.383Z,4.71
2019-02-19T22:29:41.579Z,4.66
2019-02-19T22:32:12.167Z,4.63
2019-02-19T22:34:41.348Z,4.60
2019-02-19T22:37:10.554Z,4.56
2019-02-19T22:39:39.844Z,4.58
2019-02-19T22:42:09.072Z,4.55
2019-02-19T22:44:38.223Z,4.56
2019-02-19T22:47:07.732Z,4.49
2019-02-19T22:49:37.557Z,4.46
2019-02-19T22:52:12.663Z,4.50
2019-02-19T22:54:58.849Z,4.48
2019-02-19T22:57:28.012Z,4.51
2019-02-19T22:59:57.535Z,4.50
2019-02-19T23:02:28.560Z,4.46
2019-02-19T23:04:57.719Z,4.48
2019-02-19T23:07:26.927Z,4.47
2019-02-19T23:09:56.545Z,4.50
2019-02-19T23:12:25.940Z,4.52
2019-02-19T23:14:55.096Z,4.61
2019-02-19T23:17:24.998Z,4.56
2019-02-19T23:19:54.324Z,4.54
2019-02-19T23:22:23.802Z,4.54
2019-02-19T23:24:54.449Z,4.58
2019-02-19T23:27:23.646Z,4.61
2019-02-19T23:29:52.881Z,4.53
2019-02-19T23:32:22.555Z,4.52
2019-02-19T23:35:10.917Z,4.53
2019-02-19T23:37:40.523Z,4.51
2019-02-19T23:40:09.684Z,4.42
2019-02-19T23:42:39.251Z,4.43
2019-02-19T23:45:09.463Z,4.36
2019-02-19T23:47:38.638Z,4.32
2019-02-19T23:50:09.020Z,4.33
2019-02-19T23:52:38.232Z,4.36
2019-02-19T23:55:07.790Z,4.29
2019-02-19T23:57:37.366Z,4.26
